createdAt,value
2022-09-23T00:00:03.242Z,8.83
2022-09-23T00:01:04.998Z,8.82
2022-09-23T00:02:06.785Z,8.82
2022-09-23T00:03:08.430Z,8.82
2022-09-23T00:04:10.169Z,8.82
2022-09-23T00:05:11.898Z,8.82
2022-09-23T00:06:13.639Z,8.82
2022-09-23T00:07:15.396Z,8.82
2022-09-23T00:08:17.100Z,8.81
2022-09-23T00:09:18.848Z,8.81
2022-09-23T00:10:20.580Z,8.8
2022-09-23T00:11:22.310Z,8.79
2022-09-23T00:12:24.084Z,8.79
2022-09-23T00:13:25.770Z,8.78
2022-09-23T00:14:27.535Z,8.77
2022-09-23T00:15:29.246Z,8.77
2022-09-23T00:16:31.049Z,8.76
2022-09-23T00:17:32.736Z,8.75
2022-09-23T00:18:34.453Z,8.74
2022-09-23T00:19:36.210Z,8.74
2022-09-23T00:20:37.916Z,8.73
2022-09-23T00:21:39.652Z,8.72
2022-09-23T00:22:41.391Z,8.72
2022-09-23T00:23:43.145Z,8.71
2022-09-23T00:24:44.856Z,8.71
2022-09-23T00:25:46.588Z,8.71
2022-09-23T00:26:48.348Z,8.7
2022-09-23T00:27:50.080Z,8.69
2022-09-23T00:28:51.800Z,8.69
2022-09-23T00:29:53.522Z,8.68
2022-09-23T00:30:55.326Z,8.68
2022-09-23T00:31:57.003Z,8.67
2022-09-23T00:32:58.739Z,8.67
2022-09-23T00:34:00.461Z,8.66
2022-09-23T00:35:02.211Z,8.65
2022-09-23T00:36:03.939Z,8.66
2022-09-23T00:37:05.693Z,8.65
2022-09-23T00:38:07.396Z,8.64
2022-09-23T00:39:09.148Z,8.64
2022-09-23T00:40:10.913Z,8.64
2022-09-23T00:41:12.612Z,8.63
2022-09-23T00:42:14.359Z,8.63
2022-09-23T00:43:16.081Z,8.61
2022-09-23T00:44:17.811Z,8.61
2022-09-23T00:45:19.554Z,8.6
2022-09-23T00:46:21.339Z,8.6
2022-09-23T00:47:23.049Z,8.59
2022-09-23T00:48:24.753Z,8.58
2022-09-23T00:49:26.507Z,8.59
2022-09-23T00:50:28.221Z,8.58
2022-09-23T00:51:29.972Z,8.58
2022-09-23T00:52:31.722Z,8.58
2022-09-23T00:53:33.432Z,8.57
2022-09-23T00:54:35.186Z,8.57
2022-09-23T00:55:36.897Z,8.57
2022-09-23T00:56:38.654Z,8.56
2022-09-23T00:57:40.371Z,8.55
2022-09-23T00:58:42.115Z,8.54
2022-09-23T00:59:43.830Z,8.54
2022-09-23T01:00:45.581Z,8.53
2022-09-23T01:01:47.381Z,8.51
2022-09-23T01:02:49.130Z,8.5
2022-09-23T01:03:50.774Z,8.5
2022-09-23T01:04:52.524Z,8.48
2022-09-23T01:05:54.263Z,8.47
2022-09-23T01:06:56.002Z,8.46
2022-09-23T01:07:57.712Z,8.45
2022-09-23T01:08:59.518Z,8.44
2022-09-23T01:10:01.184Z,8.43
2022-09-23T01:11:02.942Z,8.41
2022-09-23T01:12:04.695Z,8.4
2022-09-23T01:13:06.385Z,8.39
2022-09-23T01:14:08.147Z,8.37
2022-09-23T01:15:09.854Z,8.36
2022-09-23T01:16:11.690Z,8.34
2022-09-23T01:17:13.347Z,8.33
2022-09-23T01:18:15.077Z,8.31
2022-09-23T01:19:16.792Z,8.29
2022-09-23T01:20:18.540Z,8.28
2022-09-23T01:21:20.280Z,8.26
2022-09-23T01:22:22.024Z,8.25
2022-09-23T01:23:23.749Z,8.24
2022-09-23T01:24:25.485Z,8.22
2022-09-23T01:25:27.241Z,8.21
2022-09-23T01:26:28.966Z,8.2
2022-09-23T01:27:30.713Z,8.18
2022-09-23T01:28:32.408Z,8.16
2022-09-23T01:29:34.142Z,8.14
2022-09-23T01:30:35.978Z,8.13
2022-09-23T01:31:37.623Z,8.12
2022-09-23T01:32:39.360Z,8.11
2022-09-23T01:33:41.103Z,8.1
2022-09-23T01:34:42.845Z,8.08
2022-09-23T01:35:44.555Z,8.07
2022-09-23T01:36:46.329Z,8.06
2022-09-23T01:37:48.050Z,8.05
2022-09-23T01:38:49.767Z,8.04
2022-09-23T01:39:51.513Z,8.03
2022-09-23T01:40:53.239Z,8.01
2022-09-23T01:41:54.988Z,8
2022-09-23T01:42:56.712Z,7.99
2022-09-23T01:43:58.443Z,7.99
2022-09-23T01:45:00.187Z,7.97
2022-09-23T01:46:01.917Z,7.96
2022-09-23T01:47:03.675Z,7.95
2022-09-23T01:48:05.426Z,7.95
2022-09-23T01:49:07.175Z,7.94
2022-09-23T01:50:08.862Z,7.93
2022-09-23T01:51:10.598Z,7.92
2022-09-23T01:52:12.333Z,7.91
2022-09-23T01:53:14.049Z,7.9
2022-09-23T01:54:15.798Z,7.89
2022-09-23T01:55:17.521Z,7.88
2022-09-23T01:56:19.252Z,7.86
2022-09-23T01:57:21.007Z,7.85
2022-09-23T01:58:22.750Z,7.84
2022-09-23T01:59:24.462Z,7.82
2022-09-23T02:00:26.196Z,7.82
2022-09-23T02:01:27.982Z,7.8
2022-09-23T02:02:29.739Z,7.79
2022-09-23T02:03:31.411Z,7.78
2022-09-23T02:04:33.148Z,7.76
2022-09-23T02:05:34.876Z,7.76
2022-09-23T02:06:36.640Z,7.76
2022-09-23T02:07:38.369Z,7.75
2022-09-23T02:08:40.169Z,7.74
2022-09-23T02:09:41.811Z,7.73
2022-09-23T02:10:43.550Z,7.73
2022-09-23T02:11:45.293Z,7.72
2022-09-23T02:12:47.017Z,7.72
2022-09-23T02:13:48.744Z,7.72
2022-09-23T02:14:50.494Z,7.71
2022-09-23T02:15:52.210Z,7.7
2022-09-23T02:16:54.039Z,7.7
2022-09-23T02:17:55.696Z,7.69
2022-09-23T02:18:57.429Z,7.68
2022-09-23T02:19:59.150Z,7.68
2022-09-23T02:21:00.889Z,7.67
2022-09-23T02:22:02.671Z,7.67
2022-09-23T02:23:04.364Z,7.65
2022-09-23T02:24:06.089Z,7.65
2022-09-23T02:25:07.829Z,7.65
2022-09-23T02:26:09.559Z,7.64
2022-09-23T02:27:11.315Z,7.63
2022-09-23T02:28:13.037Z,7.62
2022-09-23T02:29:14.759Z,7.62
2022-09-23T02:30:16.504Z,7.62
2022-09-23T02:31:18.237Z,7.61
2022-09-23T02:32:19.985Z,7.6
2022-09-23T02:33:21.720Z,7.6
2022-09-23T02:34:23.486Z,7.58
2022-09-23T02:35:25.173Z,7.58
2022-09-23T02:36:26.906Z,7.57
2022-09-23T02:37:28.658Z,7.57
2022-09-23T02:38:30.471Z,7.57
2022-09-23T02:39:32.125Z,7.57
2022-09-23T02:40:33.908Z,7.57
2022-09-23T02:41:35.585Z,7.57
2022-09-23T02:42:37.324Z,7.57
2022-09-23T02:43:39.057Z,7.58
2022-09-23T02:44:40.784Z,7.57
2022-09-23T02:45:42.624Z,7.58
2022-09-23T02:46:44.284Z,7.58
2022-09-23T02:47:46.005Z,7.57
2022-09-23T02:48:47.734Z,7.58
2022-09-23T02:49:49.473Z,7.57
2022-09-23T02:50:51.202Z,7.58
2022-09-23T02:51:52.942Z,7.57
2022-09-23T02:52:54.676Z,7.58
2022-09-23T02:53:56.398Z,7.58
2022-09-23T02:54:58.156Z,7.58
2022-09-23T02:55:59.890Z,7.58
2022-09-23T02:57:01.633Z,7.57
2022-09-23T02:58:03.374Z,7.59
2022-09-23T02:59:05.075Z,7.58
2022-09-23T03:00:06.816Z,7.58
2022-09-23T03:01:08.615Z,7.59
2022-09-23T03:02:10.331Z,7.59
2022-09-23T03:03:12.013Z,7.6
2022-09-23T03:04:13.758Z,7.62
2022-09-23T03:05:15.496Z,7.63
2022-09-23T03:06:17.211Z,7.64
2022-09-23T03:07:18.974Z,7.66
2022-09-23T03:08:20.674Z,7.68
2022-09-23T03:09:22.411Z,7.7
2022-09-23T03:10:24.140Z,7.72
2022-09-23T03:11:25.900Z,7.74
2022-09-23T03:12:27.631Z,7.76
2022-09-23T03:13:29.629Z,7.77
2022-09-23T03:14:31.087Z,7.79
2022-09-23T03:15:32.827Z,7.8
2022-09-23T03:16:34.652Z,7.81
2022-09-23T03:17:36.309Z,7.83
2022-09-23T03:18:38.019Z,7.84
2022-09-23T03:19:39.755Z,7.84
2022-09-23T03:20:41.497Z,7.85
2022-09-23T03:21:43.261Z,7.86
2022-09-23T03:22:44.986Z,7.88
2022-09-23T03:23:46.683Z,7.89
2022-09-23T03:24:53.194Z,7.91
2022-09-23T03:25:50.175Z,7.9
2022-09-23T03:26:51.910Z,7.91
2022-09-23T03:27:53.646Z,7.92
2022-09-23T03:28:55.374Z,7.92
2022-09-23T03:29:57.116Z,7.93
2022-09-23T03:30:58.843Z,7.94
2022-09-23T03:32:00.665Z,7.93
2022-09-23T03:33:02.323Z,7.93
2022-09-23T03:34:04.047Z,7.92
2022-09-23T03:35:05.796Z,7.92
2022-09-23T03:36:07.513Z,7.91
2022-09-23T03:37:09.264Z,7.9
2022-09-23T03:38:11.004Z,7.9
2022-09-23T03:39:12.726Z,7.9
2022-09-23T03:40:14.548Z,7.89
2022-09-23T03:41:16.186Z,7.89
2022-09-23T03:42:17.953Z,7.89
2022-09-23T03:43:19.648Z,7.88
2022-09-23T03:44:21.393Z,7.89
2022-09-23T03:45:23.198Z,7.88
2022-09-23T03:46:24.866Z,7.88
2022-09-23T03:47:26.627Z,7.87
2022-09-23T03:48:28.341Z,7.87
2022-09-23T03:49:30.068Z,7.87
2022-09-23T03:50:31.792Z,7.86
2022-09-23T03:51:33.531Z,7.86
2022-09-23T03:52:35.286Z,7.84
2022-09-23T03:53:37.001Z,7.84
2022-09-23T03:54:38.733Z,7.84
2022-09-23T03:55:40.476Z,7.83
2022-09-23T03:56:42.209Z,7.83
2022-09-23T03:57:43.965Z,7.82
2022-09-23T03:58:45.686Z,7.82
2022-09-23T03:59:47.408Z,7.8
2022-09-23T04:00:49.221Z,7.8
2022-09-23T04:01:50.933Z,7.79
2022-09-23T04:02:52.608Z,7.78
2022-09-23T04:03:54.357Z,7.78
2022-09-23T04:04:56.075Z,7.77
2022-09-23T04:05:57.812Z,7.77
2022-09-23T04:06:59.567Z,7.76
2022-09-23T04:08:01.286Z,7.76
2022-09-23T04:09:03.016Z,7.76
2022-09-23T04:10:04.760Z,7.74
2022-09-23T04:11:06.494Z,7.75
2022-09-23T04:12:08.223Z,7.74
2022-09-23T04:13:09.959Z,7.74
2022-09-23T04:14:11.689Z,7.74
2022-09-23T04:15:13.430Z,7.73
2022-09-23T04:16:15.184Z,7.74
2022-09-23T04:17:16.922Z,7.73
2022-09-23T04:18:18.625Z,7.74
2022-09-23T04:19:20.356Z,7.74
2022-09-23T04:20:22.100Z,7.75
2022-09-23T04:21:23.854Z,7.77
2022-09-23T04:22:25.582Z,7.78
2022-09-23T04:23:27.316Z,7.79
2022-09-23T04:24:29.042Z,7.8
2022-09-23T04:25:30.765Z,7.8
2022-09-23T04:26:32.511Z,7.82
2022-09-23T04:27:37.459Z,7.84
2022-09-23T04:28:36.004Z,7.85
2022-09-23T04:29:37.712Z,7.86
2022-09-23T04:30:39.453Z,7.88
2022-09-23T04:31:41.268Z,7.9
2022-09-23T04:32:42.939Z,7.9
2022-09-23T04:33:44.646Z,7.91
2022-09-23T04:34:46.379Z,7.92
2022-09-23T04:35:48.141Z,7.93
2022-09-23T04:36:49.885Z,7.93
2022-09-23T04:37:51.593Z,7.94
2022-09-23T04:38:53.321Z,7.93
2022-09-23T04:39:55.076Z,7.93
2022-09-23T04:40:56.807Z,7.95
2022-09-23T04:41:58.550Z,7.94
2022-09-23T04:43:00.261Z,7.95
2022-09-23T04:44:02.026Z,7.96
2022-09-23T04:45:03.783Z,7.95
2022-09-23T04:46:05.488Z,7.95
2022-09-23T04:47:07.316Z,7.95
2022-09-23T04:48:08.942Z,7.94
2022-09-23T04:49:10.868Z,7.94
2022-09-23T04:50:12.421Z,7.93
2022-09-23T04:51:14.128Z,7.93
2022-09-23T04:52:15.879Z,7.92
2022-09-23T04:53:17.603Z,7.93
2022-09-23T04:54:19.340Z,7.92
2022-09-23T04:55:21.069Z,7.91
2022-09-23T04:56:22.817Z,7.91
2022-09-23T04:57:24.613Z,7.91
2022-09-23T04:58:26.278Z,7.91
2022-09-23T04:59:28.026Z,7.9
2022-09-23T05:00:29.855Z,7.9
2022-09-23T05:01:31.635Z,7.88
2022-09-23T05:02:33.342Z,7.88
2022-09-23T05:03:34.945Z,7.87
2022-09-23T05:04:36.682Z,7.87
2022-09-23T05:05:38.421Z,7.85
2022-09-23T05:06:40.164Z,7.86
2022-09-23T05:07:41.920Z,7.85
2022-09-23T05:08:43.626Z,7.84
2022-09-23T05:09:45.368Z,7.83
2022-09-23T05:10:47.106Z,7.82
2022-09-23T05:11:48.831Z,7.81
2022-09-23T05:12:53.639Z,7.8
2022-09-23T05:13:52.291Z,7.8
2022-09-23T05:14:54.047Z,7.79
2022-09-23T05:15:55.796Z,7.78
2022-09-23T05:16:57.522Z,7.78
2022-09-23T05:17:59.244Z,7.76
2022-09-23T05:19:01.105Z,7.76
2022-09-23T05:20:02.703Z,7.76
2022-09-23T05:21:04.448Z,7.74
2022-09-23T05:22:06.188Z,7.74
2022-09-23T05:23:07.902Z,7.73
2022-09-23T05:24:09.630Z,7.72
2022-09-23T05:25:11.369Z,7.71
2022-09-23T05:26:13.090Z,7.71
2022-09-23T05:27:14.849Z,7.71
2022-09-23T05:28:16.558Z,7.71
2022-09-23T05:29:18.303Z,7.71
2022-09-23T05:30:20.037Z,7.73
2022-09-23T05:31:21.839Z,7.73
2022-09-23T05:32:23.497Z,7.74
2022-09-23T05:33:25.236Z,7.74
2022-09-23T05:34:26.969Z,7.75
2022-09-23T05:35:28.702Z,7.75
2022-09-23T05:36:35.561Z,7.77
2022-09-23T05:37:32.192Z,7.77
2022-09-23T05:38:33.913Z,7.78
2022-09-23T05:39:35.655Z,7.8
2022-09-23T05:40:37.437Z,7.8
2022-09-23T05:41:39.138Z,7.81
2022-09-23T05:42:41.956Z,7.83
2022-09-23T05:43:42.590Z,7.84
2022-09-23T05:44:44.313Z,7.85
2022-09-23T05:45:46.053Z,7.86
2022-09-23T05:46:47.832Z,7.87
2022-09-23T05:47:49.576Z,7.89
2022-09-23T05:48:51.259Z,7.89
2022-09-23T05:50:00.186Z,7.91
2022-09-23T05:50:54.738Z,7.92
2022-09-23T05:51:56.486Z,7.93
2022-09-23T05:52:58.195Z,7.94
2022-09-23T05:54:00.985Z,7.95
2022-09-23T05:55:01.666Z,7.96
2022-09-23T05:57:05.232Z,7.97
2022-09-23T05:58:06.882Z,7.97
2022-09-23T05:59:08.732Z,7.98
2022-09-23T06:00:10.332Z,7.98
2022-09-23T06:01:12.099Z,7.99
2022-09-23T06:02:13.993Z,8
2022-09-23T06:03:15.601Z,8
2022-09-23T06:04:17.272Z,8.01
2022-09-23T06:05:19.011Z,8.01
2022-09-23T06:06:20.731Z,8.02
2022-09-23T06:07:22.503Z,8.02
2022-09-23T06:08:24.205Z,8.02
2022-09-23T06:09:25.940Z,8.02
2022-09-23T06:10:27.665Z,8.02
2022-09-23T06:11:29.408Z,8.02
2022-09-23T06:12:31.139Z,8.03
2022-09-23T06:13:33.156Z,8.03
2022-09-23T06:14:34.621Z,8.03
2022-09-23T06:15:36.344Z,8.03
2022-09-23T06:16:38.089Z,8.04
2022-09-23T06:17:39.849Z,8.04
2022-09-23T06:18:41.557Z,8.04
2022-09-23T06:19:43.693Z,8.04
2022-09-23T06:20:45.024Z,8.04
2022-09-23T06:22:12.637Z,8.04
2022-09-23T06:23:14.655Z,8.03
2022-09-23T06:24:22.054Z,8.04
2022-09-23T06:25:21.282Z,8.04
2022-09-23T06:26:23.015Z,8.03
2022-09-23T06:27:24.744Z,8.03
2022-09-23T06:28:26.475Z,8.03
2022-09-23T06:29:28.204Z,8.03
2022-09-23T06:30:29.947Z,8.03
2022-09-23T06:31:31.762Z,8.03
2022-09-23T06:32:33.415Z,8.04
2022-09-23T06:33:37.073Z,8.04
2022-09-23T06:34:47.201Z,8.04
2022-09-23T06:35:38.764Z,8.05
2022-09-23T06:36:43.993Z,8.06
2022-09-23T06:37:42.147Z,8.06
2022-09-23T06:38:43.810Z,8.06
2022-09-23T06:39:45.552Z,8.07
2022-09-23T06:40:47.330Z,8.09
2022-09-23T06:41:49.024Z,8.09
2022-09-23T06:42:52.448Z,8.1
2022-09-23T06:43:52.505Z,8.11
2022-09-23T06:44:54.275Z,8.13
2022-09-23T06:45:55.969Z,8.14
2022-09-23T06:46:57.994Z,8.15
2022-09-23T06:47:59.436Z,8.16
2022-09-23T06:49:01.160Z,8.19
2022-09-23T06:50:02.892Z,8.2
2022-09-23T06:51:04.630Z,8.22
2022-09-23T06:52:06.375Z,8.23
2022-09-23T06:53:08.105Z,8.25
2022-09-23T06:54:09.875Z,8.26
2022-09-23T06:55:11.566Z,8.29
2022-09-23T06:56:13.304Z,8.31
2022-09-23T06:57:15.047Z,8.33
2022-09-23T06:58:16.774Z,8.35
2022-09-23T06:59:18.587Z,8.38
2022-09-23T07:00:20.254Z,8.4
2022-09-23T07:01:22.035Z,8.41
2022-09-23T07:02:23.953Z,8.43
2022-09-23T07:03:25.455Z,8.47
2022-09-23T07:04:29.349Z,8.49
2022-09-23T07:05:28.913Z,8.52
2022-09-23T07:06:30.667Z,8.56
2022-09-23T07:07:32.377Z,8.59
2022-09-23T07:08:34.111Z,8.61
2022-09-23T07:09:35.846Z,8.64
2022-09-23T07:10:37.587Z,8.67
2022-09-23T07:11:39.318Z,8.7
2022-09-23T07:12:41.067Z,8.72
2022-09-23T07:13:42.799Z,8.76
2022-09-23T07:14:44.528Z,8.8
2022-09-23T07:15:46.300Z,8.83
2022-09-23T07:16:47.988Z,8.88
2022-09-23T07:17:49.727Z,8.92
2022-09-23T07:18:52.930Z,8.96
2022-09-23T07:19:53.192Z,9
2022-09-23T07:20:54.928Z,9.03
2022-09-23T07:21:56.662Z,9.08
2022-09-23T07:22:58.404Z,9.12
2022-09-23T07:24:00.166Z,9.17
2022-09-23T07:25:01.870Z,9.22
2022-09-23T07:26:03.594Z,9.26
2022-09-23T07:27:05.342Z,9.31
2022-09-23T07:28:07.151Z,9.35
2022-09-23T07:29:10.211Z,9.41
2022-09-23T07:30:17.159Z,9.44
2022-09-23T07:31:12.503Z,9.5
2022-09-23T07:32:14.546Z,9.55
2022-09-23T07:33:28.367Z,9.6
2022-09-23T07:34:17.468Z,9.63
2022-09-23T07:35:19.189Z,9.69
2022-09-23T07:36:36.485Z,9.76
2022-09-23T07:37:38.236Z,9.81
2022-09-23T07:38:44.929Z,9.88
2022-09-23T07:39:41.671Z,9.94
2022-09-23T07:40:43.582Z,9.99
2022-09-23T07:41:45.174Z,10.06
2022-09-23T07:43:02.350Z,10.12
2022-09-23T07:44:04.129Z,10.19
2022-09-23T07:45:07.871Z,10.25
2022-09-23T07:46:09.710Z,10.32
2022-09-23T07:47:11.357Z,10.39
2022-09-23T07:48:13.106Z,10.46
2022-09-23T07:49:14.823Z,10.53
2022-09-23T07:50:16.564Z,10.6
2022-09-23T07:51:18.268Z,10.67
2022-09-23T07:52:20.010Z,10.73
2022-09-23T07:53:21.740Z,10.81
2022-09-23T07:54:23.479Z,10.87
2022-09-23T07:55:25.207Z,10.95
2022-09-23T07:56:26.947Z,11.02
2022-09-23T07:57:28.706Z,11.11
2022-09-23T07:58:30.417Z,11.2
2022-09-23T07:59:32.131Z,11.26
2022-09-23T08:00:33.870Z,11.33
2022-09-23T08:01:35.682Z,11.41
2022-09-23T08:02:37.381Z,11.5
2022-09-23T08:03:39.059Z,11.58
2022-09-23T08:04:40.792Z,11.66
2022-09-23T08:05:42.526Z,11.77
2022-09-23T08:06:44.243Z,11.85
2022-09-23T08:07:45.993Z,11.93
2022-09-23T08:08:52.560Z,12.02
2022-09-23T08:09:49.405Z,12.1
2022-09-23T08:10:51.134Z,12.17
2022-09-23T08:11:52.859Z,12.23
2022-09-23T08:12:54.604Z,12.29
2022-09-23T08:13:56.340Z,12.35
2022-09-23T08:14:58.036Z,12.42
2022-09-23T08:15:59.875Z,12.49
2022-09-23T08:17:01.516Z,12.56
2022-09-23T08:18:03.241Z,12.65
2022-09-23T08:20:06.688Z,12.8
2022-09-23T08:21:08.407Z,12.9
2022-09-23T08:22:10.139Z,12.99
2022-09-23T08:23:11.862Z,13.08
2022-09-23T08:24:14.863Z,13.18
2022-09-23T08:25:15.329Z,13.26
2022-09-23T08:26:21.828Z,13.31
2022-09-23T08:27:18.802Z,13.36
2022-09-23T08:28:20.539Z,13.41
2022-09-23T08:29:22.259Z,13.42
2022-09-23T08:30:24.004Z,13.45
2022-09-23T08:31:25.804Z,13.46
2022-09-23T08:32:27.481Z,13.46
2022-09-23T08:33:29.209Z,13.47
2022-09-23T08:34:30.945Z,13.5
2022-09-23T08:35:32.677Z,13.52
2022-09-23T08:36:34.411Z,13.57
2022-09-23T08:37:36.164Z,13.61
2022-09-23T08:38:37.871Z,13.66
2022-09-23T08:39:39.624Z,13.69
2022-09-23T08:40:41.370Z,13.75
2022-09-23T08:41:43.079Z,13.81
2022-09-23T08:42:44.831Z,13.83
2022-09-23T08:43:46.547Z,13.84
2022-09-23T08:44:48.290Z,13.88
2022-09-23T08:45:50.083Z,13.89
2022-09-23T08:46:51.766Z,13.93
2022-09-23T08:47:53.507Z,13.95
2022-09-23T08:48:55.241Z,13.96
2022-09-23T08:49:56.953Z,13.97
2022-09-23T08:50:58.688Z,14
2022-09-23T08:52:00.436Z,14.01
2022-09-23T08:53:02.168Z,14.01
2022-09-23T08:54:03.895Z,14.03
2022-09-23T08:55:05.648Z,14.04
2022-09-23T08:56:07.364Z,14.04
2022-09-23T08:57:09.105Z,14.06
2022-09-23T08:58:25.049Z,14.06
2022-09-23T08:59:12.570Z,14.08
2022-09-23T09:00:14.308Z,14.11
2022-09-23T09:01:16.112Z,14.14
2022-09-23T09:02:17.868Z,14.17
2022-09-23T09:03:19.528Z,14.19
2022-09-23T09:04:21.272Z,14.25
2022-09-23T09:05:23.006Z,14.27
2022-09-23T09:06:24.725Z,14.31
2022-09-23T09:07:37.145Z,14.33
2022-09-23T09:08:28.185Z,14.35
2022-09-23T09:09:29.925Z,14.37
2022-09-23T09:10:31.646Z,14.41
2022-09-23T09:11:33.402Z,14.44
2022-09-23T09:12:35.129Z,14.48
2022-09-23T09:13:36.854Z,14.52
2022-09-23T09:14:38.590Z,14.51
2022-09-23T09:15:40.347Z,14.57
2022-09-23T09:16:58.799Z,14.63
2022-09-23T09:17:50.683Z,14.7
2022-09-23T09:18:52.396Z,14.74
2022-09-23T09:19:54.125Z,14.78
2022-09-23T09:20:55.876Z,14.83
2022-09-23T09:21:57.597Z,14.88
2022-09-23T09:22:59.393Z,14.94
2022-09-23T09:24:01.065Z,14.93
2022-09-23T09:25:02.814Z,14.94
2022-09-23T09:26:04.563Z,14.94
2022-09-23T09:27:06.273Z,14.91
2022-09-23T09:28:08.029Z,14.89
2022-09-23T09:29:23.785Z,14.88
2022-09-23T09:30:11.494Z,14.86
2022-09-23T09:31:13.276Z,14.84
2022-09-23T09:32:14.952Z,14.83
2022-09-23T09:33:16.699Z,14.83
2022-09-23T09:34:18.456Z,14.81
2022-09-23T09:35:20.162Z,14.77
2022-09-23T09:36:21.876Z,14.75
2022-09-23T09:37:23.645Z,14.74
2022-09-23T09:38:25.361Z,14.71
2022-09-23T09:39:27.078Z,14.71
2022-09-23T09:40:28.878Z,14.72
2022-09-23T09:41:30.531Z,14.74
2022-09-23T09:42:32.265Z,14.75
2022-09-23T09:43:33.990Z,14.77
2022-09-23T09:44:37.212Z,14.8
2022-09-23T09:45:37.472Z,14.81
2022-09-23T09:46:39.279Z,14.84
2022-09-23T09:47:40.965Z,14.86
2022-09-23T09:48:42.668Z,14.89
2022-09-23T09:49:44.392Z,14.9
2022-09-23T09:50:46.134Z,14.89
2022-09-23T09:52:18.801Z,14.89
2022-09-23T09:53:20.466Z,14.89
2022-09-23T09:54:22.204Z,14.9
2022-09-23T09:55:23.937Z,14.88
2022-09-23T09:56:25.672Z,14.89
2022-09-23T09:57:30.727Z,14.89
2022-09-23T09:58:29.157Z,14.9
2022-09-23T09:59:30.872Z,14.91
2022-09-23T10:00:32.629Z,14.93
2022-09-23T10:01:34.463Z,14.95
2022-09-23T10:02:36.100Z,15.01
2022-09-23T10:03:37.822Z,15.06
2022-09-23T10:05:08.482Z,15.16
2022-09-23T10:06:44.335Z,15.23
2022-09-23T10:07:45.794Z,15.29
2022-09-23T10:08:47.447Z,15.35
2022-09-23T10:09:49.175Z,15.4
2022-09-23T10:10:50.934Z,15.44
2022-09-23T10:11:52.642Z,15.48
2022-09-23T10:12:54.399Z,15.52
2022-09-23T10:13:56.110Z,15.55
2022-09-23T10:14:57.829Z,15.57
2022-09-23T10:15:59.558Z,15.56
2022-09-23T10:17:01.375Z,15.55
2022-09-23T10:18:03.074Z,15.56
2022-09-23T10:19:04.782Z,15.57
2022-09-23T10:20:06.513Z,15.58
2022-09-23T10:21:08.241Z,15.6
2022-09-23T10:22:09.981Z,15.55
2022-09-23T10:23:11.722Z,15.56
2022-09-23T10:24:13.453Z,15.54
2022-09-23T10:25:15.180Z,15.5
2022-09-23T10:26:16.917Z,15.49
2022-09-23T10:27:18.655Z,15.49
2022-09-23T10:28:20.407Z,15.48
2022-09-23T10:29:22.121Z,15.49
2022-09-23T10:30:23.876Z,15.52
2022-09-23T10:31:25.591Z,15.52
2022-09-23T10:32:27.342Z,15.53
2022-09-23T10:33:29.081Z,15.53
2022-09-23T10:34:30.825Z,15.46
2022-09-23T10:35:32.526Z,15.46
2022-09-23T10:36:34.264Z,15.49
2022-09-23T10:37:36.002Z,15.5
2022-09-23T10:38:37.761Z,15.53
2022-09-23T10:39:39.471Z,15.57
2022-09-23T10:40:41.316Z,15.6
2022-09-23T10:41:42.924Z,15.64
2022-09-23T10:42:44.680Z,15.69
2022-09-23T10:43:46.417Z,15.74
2022-09-23T10:44:48.136Z,15.78
2022-09-23T10:45:49.930Z,15.8
2022-09-23T10:46:51.622Z,15.81
2022-09-23T10:47:53.379Z,15.83
2022-09-23T10:48:55.074Z,15.85
2022-09-23T10:49:56.810Z,15.83
2022-09-23T10:50:59.567Z,15.85
2022-09-23T10:52:00.288Z,15.86
2022-09-23T10:53:02.024Z,15.86
2022-09-23T10:54:03.763Z,15.87
2022-09-23T10:55:05.496Z,15.86
2022-09-23T10:56:07.229Z,15.88
2022-09-23T10:57:08.954Z,15.91
2022-09-23T10:58:10.710Z,15.93
2022-09-23T10:59:12.435Z,15.98
2022-09-23T11:00:14.228Z,16.02
2022-09-23T11:01:15.959Z,16.06
2022-09-23T11:02:17.651Z,16.09
2022-09-23T11:04:00.058Z,16.13
2022-09-23T11:05:04.606Z,16.16
2022-09-23T11:06:06.281Z,16.21
2022-09-23T11:07:07.999Z,16.25
2022-09-23T11:08:09.773Z,16.29
2022-09-23T11:09:11.471Z,16.34
2022-09-23T11:10:23.195Z,16.37
2022-09-23T11:11:14.936Z,16.39
2022-09-23T11:12:16.693Z,16.41
2022-09-23T11:13:18.416Z,16.43
2022-09-23T11:14:20.140Z,16.41
2022-09-23T11:15:21.880Z,16.45
2022-09-23T11:16:23.690Z,16.46
2022-09-23T11:17:25.340Z,16.47
2022-09-23T11:18:27.099Z,16.47
2022-09-23T11:19:28.808Z,16.47
2022-09-23T11:20:30.546Z,16.47
2022-09-23T11:21:32.287Z,16.47
2022-09-23T11:22:34.023Z,16.47
2022-09-23T11:23:35.767Z,16.47
2022-09-23T11:24:37.478Z,16.46
2022-09-23T11:25:39.231Z,16.45
2022-09-23T11:26:40.948Z,16.44
2022-09-23T11:27:42.680Z,16.44
2022-09-23T11:28:44.438Z,16.44
2022-09-23T11:37:41.174Z,16.32
2022-09-23T11:38:42.903Z,16.3
2022-09-23T11:39:44.650Z,16.31
2022-09-23T11:40:46.753Z,16.32
2022-09-23T11:41:48.154Z,16.32
2022-09-23T11:42:49.813Z,16.33
2022-09-23T11:43:51.545Z,16.35
2022-09-23T11:44:53.302Z,16.36
2022-09-23T11:45:55.099Z,16.38
2022-09-23T11:46:56.746Z,16.38
2022-09-23T11:47:58.480Z,16.37
2022-09-23T11:49:00.234Z,16.38
2022-09-23T11:50:01.948Z,16.38
2022-09-23T11:51:03.694Z,16.38
2022-09-23T11:52:05.444Z,16.37
2022-09-23T11:53:07.159Z,16.36
2022-09-23T11:54:08.885Z,16.37
2022-09-23T11:55:19.618Z,16.38
2022-09-23T11:56:12.514Z,16.37
2022-09-23T11:57:14.089Z,16.36
2022-09-23T11:58:23.565Z,16.37
2022-09-23T11:59:18.513Z,16.39
2022-09-23T12:00:19.340Z,16.42
2022-09-23T12:01:29.388Z,16.44
2022-09-23T12:02:26.890Z,16.45
2022-09-23T12:03:34.368Z,16.46
2022-09-23T12:04:26.638Z,16.45
2022-09-23T12:05:28.103Z,16.47
2022-09-23T12:06:29.705Z,16.48
2022-09-23T12:07:31.431Z,16.48
2022-09-23T12:08:33.177Z,16.49
2022-09-23T12:09:57.188Z,16.5
2022-09-23T12:10:36.624Z,16.52
2022-09-23T12:11:38.373Z,16.52
2022-09-23T12:12:40.128Z,16.51
2022-09-23T12:13:41.862Z,16.49
2022-09-23T12:14:43.588Z,16.46
2022-09-23T12:15:45.297Z,16.44
2022-09-23T12:16:47.072Z,16.41
2022-09-23T12:17:48.767Z,16.41
2022-09-23T12:18:50.507Z,16.4
2022-09-23T12:19:52.255Z,16.4
2022-09-23T12:20:53.981Z,16.39
2022-09-23T12:21:55.696Z,16.4
2022-09-23T12:22:57.423Z,16.41
2022-09-23T12:23:59.172Z,16.43
2022-09-23T12:25:00.914Z,16.46
2022-09-23T12:26:02.643Z,16.49
2022-09-23T12:27:04.373Z,16.53
2022-09-23T12:28:06.119Z,16.57
2022-09-23T12:29:07.839Z,16.6
2022-09-23T12:30:09.618Z,16.63
2022-09-23T12:31:11.383Z,16.67
2022-09-23T12:32:13.042Z,16.7
2022-09-23T12:33:14.803Z,16.72
2022-09-23T12:34:16.525Z,16.73
2022-09-23T12:35:18.256Z,16.73
2022-09-23T12:36:19.987Z,16.75
2022-09-23T12:37:21.713Z,16.75
2022-09-23T12:38:23.446Z,16.75
2022-09-23T12:39:25.207Z,16.75
2022-09-23T12:40:27.008Z,16.76
2022-09-23T12:41:28.641Z,16.76
2022-09-23T12:42:31.270Z,16.77
2022-09-23T12:43:32.122Z,16.78
2022-09-23T12:44:33.865Z,16.81
2022-09-23T12:45:35.648Z,16.8
2022-09-23T12:46:37.317Z,16.83
2022-09-23T12:47:39.053Z,16.84
2022-09-23T12:48:40.791Z,16.87
2022-09-23T12:49:42.513Z,16.89
2022-09-23T12:50:44.267Z,16.92
2022-09-23T12:51:46.012Z,16.94
2022-09-23T12:52:47.726Z,16.95
2022-09-23T12:53:49.450Z,16.96
2022-09-23T12:54:52.609Z,16.98
2022-09-23T12:55:52.935Z,16.99
2022-09-23T12:56:54.659Z,17
2022-09-23T12:57:56.394Z,17.01
2022-09-23T12:58:58.122Z,17.04
2022-09-23T12:59:59.845Z,17.06
2022-09-23T13:01:01.778Z,17.08
2022-09-23T13:02:03.473Z,17.1
2022-09-23T13:03:05.103Z,17.12
2022-09-23T13:04:06.977Z,17.13
2022-09-23T13:05:08.527Z,17.14
2022-09-23T13:06:10.282Z,17.13
2022-09-23T13:07:12.001Z,17.12
2022-09-23T13:08:13.725Z,17.1
2022-09-23T13:09:15.454Z,17.08
2022-09-23T13:10:17.197Z,17.06
2022-09-23T13:11:18.948Z,17.05
2022-09-23T13:12:20.671Z,17.03
2022-09-23T13:13:22.383Z,16.99
2022-09-23T13:14:27.382Z,16.96
2022-09-23T13:15:25.857Z,16.94
2022-09-23T13:16:27.667Z,16.92
2022-09-23T13:17:29.325Z,16.91
2022-09-23T13:18:31.060Z,16.89
2022-09-23T13:19:38.018Z,16.88
2022-09-23T13:20:34.517Z,16.87
2022-09-23T13:21:36.278Z,16.87
2022-09-23T13:22:37.987Z,16.85
2022-09-23T13:23:39.734Z,16.85
2022-09-23T13:24:41.470Z,16.82
2022-09-23T13:25:43.188Z,16.81
2022-09-23T13:26:44.929Z,16.78
2022-09-23T13:27:46.690Z,16.77
2022-09-23T13:28:48.387Z,16.75
2022-09-23T13:29:50.121Z,16.72
2022-09-23T13:30:51.856Z,16.7
2022-09-23T13:31:53.682Z,16.69
2022-09-23T13:32:55.324Z,16.67
2022-09-23T13:33:57.059Z,16.65
2022-09-23T13:34:58.801Z,16.62
2022-09-23T13:36:00.525Z,16.62
2022-09-23T13:37:02.270Z,16.61
2022-09-23T13:38:03.991Z,16.6
2022-09-23T13:39:05.721Z,16.62
2022-09-23T13:40:07.591Z,16.62
2022-09-23T13:41:09.185Z,16.64
2022-09-23T13:42:10.942Z,16.65
2022-09-23T13:43:12.648Z,16.66
2022-09-23T13:44:14.389Z,16.68
2022-09-23T13:45:16.126Z,16.7
2022-09-23T13:46:17.965Z,16.71